sensor_id;sensor_type;location;lat;lon;timestamp;temperature;humidity
23259;DHT22;11798;51.528;7.240;2023-06-10T00:01:02;19.90;99.90
23259;DHT22;11798;51.528;7.240;2023-06-10T00:03:27;19.80;99.90
23259;DHT22;11798;51.528;7.240;2023-06-10T00:05:53;19.90;99.90
23259;DHT22;11798;51.528;7.240;2023-06-10T00:08:19;19.90;99.90
23259;DHT22;11798;51.528;7.240;2023-06-10T00:10:45;19.80;99.90
23259;DHT22;11798;51.528;7.240;2023-06-10T00:13:10;19.80;99.90
23259;DHT22;11798;51.528;7.240;2023-06-10T00:15:39;19.70;99.90
23259;DHT22;11798;51.528;7.240;2023-06-10T00:18:05;19.70;99.90
23259;DHT22;11798;51.528;7.240;2023-06-10T00:20:31;19.60;99.90
23259;DHT22;11798;51.528;7.240;2023-06-10T00:22:58;19.70;99.90
23259;DHT22;11798;51.528;7.240;2023-06-10T00:25:24;19.60;99.90
23259;DHT22;11798;51.528;7.240;2023-06-10T00:27:51;19.60;99.90
23259;DHT22;11798;51.528;7.240;2023-06-10T00:30:16;19.50;99.90
23259;DHT22;11798;51.528;7.240;2023-06-10T00:32:42;19.50;99.90
23259;DHT22;11798;51.528;7.240;2023-06-10T00:35:08;19.50;99.90
23259;DHT22;11798;51.528;7.240;2023-06-10T00:37:34;19.40;99.90
23259;DHT22;11798;51.528;7.240;2023-06-10T00:40:03;19.30;99.90
23259;DHT22;11798;51.528;7.240;2023-06-10T00:42:29;19.30;99.90
23259;DHT22;11798;51.528;7.240;2023-06-10T00:44:55;19.20;99.90
23259;DHT22;11798;51.528;7.240;2023-06-10T00:47:21;19.20;99.90
23259;DHT22;11798;51.528;7.240;2023-06-10T00:49:48;19.20;99.90
23259;DHT22;11798;51.528;7.240;2023-06-10T00:52:16;19.20;99.90
23259;DHT22;11798;51.528;7.240;2023-06-10T00:54:42;19.10;99.90
23259;DHT22;11798;51.528;7.240;2023-06-10T00:57:08;19.10;99.90
23259;DHT22;11798;51.528;7.240;2023-06-10T00:59:33;19.10;99.90
23259;DHT22;11798;51.528;7.240;2023-06-10T01:01:59;19.00;99.90
23259;DHT22;11798;51.528;7.240;2023-06-10T01:04:26;18.90;99.90
23259;DHT22;11798;51.528;7.240;2023-06-10T01:07:14;18.90;99.90
23259;DHT22;11798;51.528;7.240;2023-06-10T01:09:53;18.90;99.90
23259;DHT22;11798;51.528;7.240;2023-06-10T01:12:26;18.90;99.90
23259;DHT22;11798;51.528;7.240;2023-06-10T01:14:55;18.90;99.90
23259;DHT22;11798;51.528;7.240;2023-06-10T01:17:20;18.90;99.90
23259;DHT22;11798;51.528;7.240;2023-06-10T01:19:56;18.80;99.90
23259;DHT22;11798;51.528;7.240;2023-06-10T01:22:23;18.80;99.90
23259;DHT22;11798;51.528;7.240;2023-06-10T01:24:49;18.70;99.90
23259;DHT22;11798;51.528;7.240;2023-06-10T01:27:16;18.70;99.90
23259;DHT22;11798;51.528;7.240;2023-06-10T01:29:50;18.70;99.90
23259;DHT22;11798;51.528;7.240;2023-06-10T01:32:26;18.70;99.90
23259;DHT22;11798;51.528;7.240;2023-06-10T01:34:54;18.70;99.90
23259;DHT22;11798;51.528;7.240;2023-06-10T01:37:21;18.60;99.90
23259;DHT22;11798;51.528;7.240;2023-06-10T01:39:50;18.50;99.90
23259;DHT22;11798;51.528;7.240;2023-06-10T01:42:17;18.50;99.90
23259;DHT22;11798;51.528;7.240;2023-06-10T01:44:42;18.50;99.90
23259;DHT22;11798;51.528;7.240;2023-06-10T01:47:08;18.50;99.90
23259;DHT22;11798;51.528;7.240;2023-06-10T01:49:34;18.40;99.90
23259;DHT22;11798;51.528;7.240;2023-06-10T01:52:00;18.40;99.90
23259;DHT22;11798;51.528;7.240;2023-06-10T01:54:25;18.40;99.90
23259;DHT22;11798;51.528;7.240;2023-06-10T01:56:51;18.40;99.90
23259;DHT22;11798;51.528;7.240;2023-06-10T01:59:17;18.40;99.90
23259;DHT22;11798;51.528;7.240;2023-06-10T02:01:42;18.30;99.90
23259;DHT22;11798;51.528;7.240;2023-06-10T02:04:08;18.30;99.90
23259;DHT22;11798;51.528;7.240;2023-06-10T02:06:34;18.30;99.90
23259;DHT22;11798;51.528;7.240;2023-06-10T02:09:01;18.30;99.90
23259;DHT22;11798;51.528;7.240;2023-06-10T02:11:26;18.20;99.90
23259;DHT22;11798;51.528;7.240;2023-06-10T02:13:52;18.20;99.90
23259;DHT22;11798;51.528;7.240;2023-06-10T02:16:18;18.20;99.90
23259;DHT22;11798;51.528;7.240;2023-06-10T02:18:44;18.20;99.90
23259;DHT22;11798;51.528;7.240;2023-06-10T02:21:10;18.20;99.90
23259;DHT22;11798;51.528;7.240;2023-06-10T02:23:36;18.20;99.90
23259;DHT22;11798;51.528;7.240;2023-06-10T02:26:01;18.20;99.90
23259;DHT22;11798;51.528;7.240;2023-06-10T02:28:27;18.20;99.90
23259;DHT22;11798;51.528;7.240;2023-06-10T02:30:53;18.20;99.90
23259;DHT22;11798;51.528;7.240;2023-06-10T02:33:18;18.10;99.90
23259;DHT22;11798;51.528;7.240;2023-06-10T02:35:45;18.20;99.90
23259;DHT22;11798;51.528;7.240;2023-06-10T02:38:11;18.10;99.90
23259;DHT22;11798;51.528;7.240;2023-06-10T02:40:36;18.00;99.90
23259;DHT22;11798;51.528;7.240;2023-06-10T02:43:02;18.00;99.90
23259;DHT22;11798;51.528;7.240;2023-06-10T02:45:28;18.00;99.90
23259;DHT22;11798;51.528;7.240;2023-06-10T02:47:53;18.00;99.90
23259;DHT22;11798;51.528;7.240;2023-06-10T02:50:19;18.00;99.90
23259;DHT22;11798;51.528;7.240;2023-06-10T02:52:45;17.90;99.90
23259;DHT22;11798;51.528;7.240;2023-06-10T02:55:10;17.80;99.90
23259;DHT22;11798;51.528;7.240;2023-06-10T02:57:36;17.80;99.90
23259;DHT22;11798;51.528;7.240;2023-06-10T03:00:02;17.80;99.90
23259;DHT22;11798;51.528;7.240;2023-06-10T03:02:30;17.70;99.90
23259;DHT22;11798;51.528;7.240;2023-06-10T03:04:57;17.70;99.90
23259;DHT22;11798;51.528;7.240;2023-06-10T03:07:23;17.80;99.90
23259;DHT22;11798;51.528;7.240;2023-06-10T03:09:49;17.70;99.90
23259;DHT22;11798;51.528;7.240;2023-06-10T03:12:15;17.70;99.90
23259;DHT22;11798;51.528;7.240;2023-06-10T03:14:41;17.70;99.90
23259;DHT22;11798;51.528;7.240;2023-06-10T03:17:07;17.60;99.90
23259;DHT22;11798;51.528;7.240;2023-06-10T03:19:34;17.60;99.90
23259;DHT22;11798;51.528;7.240;2023-06-10T03:22:10;17.60;99.90
23259;DHT22;11798;51.528;7.240;2023-06-10T03:24:36;17.60;99.90
23259;DHT22;11798;51.528;7.240;2023-06-10T03:27:08;17.60;99.90
23259;DHT22;11798;51.528;7.240;2023-06-10T03:29:35;17.60;99.90
23259;DHT22;11798;51.528;7.240;2023-06-10T03:32:01;17.60;99.90
23259;DHT22;11798;51.528;7.240;2023-06-10T03:34:27;17.60;99.90
23259;DHT22;11798;51.528;7.240;2023-06-10T03:36:52;17.60;99.90
23259;DHT22;11798;51.528;7.240;2023-06-10T03:39:18;17.60;99.90
23259;DHT22;11798;51.528;7.240;2023-06-10T03:41:43;17.50;99.90
23259;DHT22;11798;51.528;7.240;2023-06-10T03:44:09;17.50;99.90
23259;DHT22;11798;51.528;7.240;2023-06-10T03:46:35;17.60;99.90
23259;DHT22;11798;51.528;7.240;2023-06-10T03:49:01;17.50;99.90
23259;DHT22;11798;51.528;7.240;2023-06-10T03:51:27;17.50;99.90
23259;DHT22;11798;51.528;7.240;2023-06-10T03:53:52;17.50;99.90
23259;DHT22;11798;51.528;7.240;2023-06-10T03:56:18;17.40;99.90
23259;DHT22;11798;51.528;7.240;2023-06-10T03:58:44;17.40;99.90
23259;DHT22;11798;51.528;7.240;2023-06-10T04:01:10;17.40;99.90
23259;DHT22;11798;51.528;7.240;2023-06-10T04:03:36;17.40;99.90
23259;DHT22;11798;51.528;7.240;2023-06-10T04:06:02;17.40;99.90
23259;DHT22;11798;51.528;7.240;2023-06-10T04:08:28;17.40;99.90
23259;DHT22;11798;51.528;7.240;2023-06-10T04:10:53;17.40;99.90
23259;DHT22;11798;51.528;7.240;2023-06-10T04:13:19;17.40;99.90
23259;DHT22;11798;51.528;7.240;2023-06-10T04:15:45;17.40;99.90
23259;DHT22;11798;51.528;7.240;2023-06-10T04:18:10;17.40;99.90
23259;DHT22;11798;51.528;7.240;2023-06-10T04:20:36;17.40;99.90
23259;DHT22;11798;51.528;7.240;2023-06-10T04:23:02;17.40;99.90
23259;DHT22;11798;51.528;7.240;2023-06-10T04:25:28;17.30;99.90
23259;DHT22;11798;51.528;7.240;2023-06-10T04:27:54;17.40;99.90
23259;DHT22;11798;51.528;7.240;2023-06-10T04:30:20;17.40;99.90
23259;DHT22;11798;51.528;7.240;2023-06-10T04:32:45;17.40;99.90
23259;DHT22;11798;51.528;7.240;2023-06-10T04:35:13;17.40;99.90
23259;DHT22;11798;51.528;7.240;2023-06-10T04:37:40;17.40;99.90
23259;DHT22;11798;51.528;7.240;2023-06-10T04:40:07;17.40;99.90
23259;DHT22;11798;51.528;7.240;2023-06-10T04:42:33;17.40;99.90
23259;DHT22;11798;51.528;7.240;2023-06-10T04:44:59;17.40;99.90
23259;DHT22;11798;51.528;7.240;2023-06-10T04:47:25;17.40;99.90
23259;DHT22;11798;51.528;7.240;2023-06-10T04:49:51;17.40;99.90
23259;DHT22;11798;51.528;7.240;2023-06-10T04:52:17;17.50;99.90
23259;DHT22;11798;51.528;7.240;2023-06-10T04:54:43;17.50;99.90
23259;DHT22;11798;51.528;7.240;2023-06-10T04:57:08;17.50;99.90
23259;DHT22;11798;51.528;7.240;2023-06-10T04:59:34;17.60;99.90
23259;DHT22;11798;51.528;7.240;2023-06-10T05:02:06;17.60;99.90
23259;DHT22;11798;51.528;7.240;2023-06-10T05:04:32;17.60;99.90
23259;DHT22;11798;51.528;7.240;2023-06-10T05:06:58;17.60;99.90
23259;DHT22;11798;51.528;7.240;2023-06-10T05:09:23;17.70;99.90
23259;DHT22;11798;51.528;7.240;2023-06-10T05:11:49;17.70;99.90
23259;DHT22;11798;51.528;7.240;2023-06-10T05:14:14;17.80;99.90
23259;DHT22;11798;51.528;7.240;2023-06-10T05:16:42;17.80;99.90
23259;DHT22;11798;51.528;7.240;2023-06-10T05:19:08;17.80;99.90
23259;DHT22;11798;51.528;7.240;2023-06-10T05:21:34;17.90;99.90
23259;DHT22;11798;51.528;7.240;2023-06-10T05:24:00;18.00;99.90
23259;DHT22;11798;51.528;7.240;2023-06-10T05:26:25;18.10;99.90
23259;DHT22;11798;51.528;7.240;2023-06-10T05:28:51;18.10;99.90
23259;DHT22;11798;51.528;7.240;2023-06-10T05:31:17;18.20;99.90
23259;DHT22;11798;51.528;7.240;2023-06-10T05:33:43;18.40;99.90
23259;DHT22;11798;51.528;7.240;2023-06-10T05:36:09;18.40;99.90
23259;DHT22;11798;51.528;7.240;2023-06-10T05:38:34;18.40;99.90
23259;DHT22;11798;51.528;7.240;2023-06-10T05:41:00;18.50;99.90
23259;DHT22;11798;51.528;7.240;2023-06-10T05:43:26;18.60;99.90
23259;DHT22;11798;51.528;7.240;2023-06-10T05:45:51;18.70;99.90
23259;DHT22;11798;51.528;7.240;2023-06-10T05:48:17;18.80;99.90
23259;DHT22;11798;51.528;7.240;2023-06-10T05:50:43;18.90;99.90
23259;DHT22;11798;51.528;7.240;2023-06-10T05:53:14;19.00;99.90
23259;DHT22;11798;51.528;7.240;2023-06-10T05:55:44;19.00;99.90
23259;DHT22;11798;51.528;7.240;2023-06-10T05:58:11;19.10;99.90
23259;DHT22;11798;51.528;7.240;2023-06-10T06:00:40;19.20;99.90
23259;DHT22;11798;51.528;7.240;2023-06-10T06:03:07;19.20;99.90
23259;DHT22;11798;51.528;7.240;2023-06-10T06:05:36;19.30;99.90
23259;DHT22;11798;51.528;7.240;2023-06-10T06:08:04;19.40;99.90
23259;DHT22;11798;51.528;7.240;2023-06-10T06:10:30;19.40;99.90
23259;DHT22;11798;51.528;7.240;2023-06-10T06:12:56;19.50;99.90
23259;DHT22;11798;51.528;7.240;2023-06-10T06:15:21;19.60;99.90
23259;DHT22;11798;51.528;7.240;2023-06-10T06:17:47;19.70;99.90
23259;DHT22;11798;51.528;7.240;2023-06-10T06:20:12;19.80;99.90
23259;DHT22;11798;51.528;7.240;2023-06-10T06:22:38;19.90;99.90
23259;DHT22;11798;51.528;7.240;2023-06-10T06:25:04;19.80;99.90
23259;DHT22;11798;51.528;7.240;2023-06-10T06:27:31;19.90;99.90
23259;DHT22;11798;51.528;7.240;2023-06-10T06:29:56;20.00;99.90
23259;DHT22;11798;51.528;7.240;2023-06-10T06:32:22;20.10;99.90
23259;DHT22;11798;51.528;7.240;2023-06-10T06:34:48;20.20;99.90
23259;DHT22;11798;51.528;7.240;2023-06-10T06:37:22;20.20;99.90
23259;DHT22;11798;51.528;7.240;2023-06-10T06:39:50;20.30;99.90
23259;DHT22;11798;51.528;7.240;2023-06-10T06:42:16;20.20;99.90
23259;DHT22;11798;51.528;7.240;2023-06-10T06:44:42;20.30;99.90
23259;DHT22;11798;51.528;7.240;2023-06-10T06:47:07;20.40;99.90
23259;DHT22;11798;51.528;7.240;2023-06-10T06:49:33;20.30;99.90
23259;DHT22;11798;51.528;7.240;2023-06-10T06:51:59;20.40;99.90
23259;DHT22;11798;51.528;7.240;2023-06-10T06:54:24;20.50;99.90
23259;DHT22;11798;51.528;7.240;2023-06-10T06:56:50;20.60;99.90
23259;DHT22;11798;51.528;7.240;2023-06-10T06:59:16;20.80;99.90
23259;DHT22;11798;51.528;7.240;2023-06-10T07:01:44;20.80;99.90
23259;DHT22;11798;51.528;7.240;2023-06-10T07:04:10;21.00;99.90
23259;DHT22;11798;51.528;7.240;2023-06-10T07:06:36;21.00;99.90
23259;DHT22;11798;51.528;7.240;2023-06-10T07:09:01;21.10;99.90
23259;DHT22;11798;51.528;7.240;2023-06-10T07:11:27;21.20;99.90
23259;DHT22;11798;51.528;7.240;2023-06-10T07:13:53;21.30;99.90
23259;DHT22;11798;51.528;7.240;2023-06-10T07:16:18;21.40;99.90
23259;DHT22;11798;51.528;7.240;2023-06-10T07:18:46;21.50;99.90
23259;DHT22;11798;51.528;7.240;2023-06-10T07:21:11;21.50;99.90
23259;DHT22;11798;51.528;7.240;2023-06-10T07:23:37;21.60;99.90
23259;DHT22;11798;51.528;7.240;2023-06-10T07:26:02;21.70;99.90
23259;DHT22;11798;51.528;7.240;2023-06-10T07:28:28;21.70;99.90
23259;DHT22;11798;51.528;7.240;2023-06-10T07:30:54;21.80;99.90
23259;DHT22;11798;51.528;7.240;2023-06-10T07:33:19;21.90;99.90
23259;DHT22;11798;51.528;7.240;2023-06-10T07:35:45;22.00;99.90
23259;DHT22;11798;51.528;7.240;2023-06-10T07:38:11;22.00;99.90
23259;DHT22;11798;51.528;7.240;2023-06-10T07:40:36;22.10;99.90
23259;DHT22;11798;51.528;7.240;2023-06-10T07:43:02;22.30;99.90
23259;DHT22;11798;51.528;7.240;2023-06-10T07:45:27;22.40;99.90
23259;DHT22;11798;51.528;7.240;2023-06-10T07:47:53;22.40;99.90
23259;DHT22;11798;51.528;7.240;2023-06-10T07:50:19;22.50;99.90
23259;DHT22;11798;51.528;7.240;2023-06-10T07:52:44;22.50;99.90
23259;DHT22;11798;51.528;7.240;2023-06-10T07:55:10;22.50;99.90
23259;DHT22;11798;51.528;7.240;2023-06-10T07:57:36;22.50;99.90
23259;DHT22;11798;51.528;7.240;2023-06-10T08:00:04;22.50;99.90
23259;DHT22;11798;51.528;7.240;2023-06-10T08:02:31;22.60;99.90
23259;DHT22;11798;51.528;7.240;2023-06-10T08:04:57;22.60;99.90
23259;DHT22;11798;51.528;7.240;2023-06-10T08:07:23;22.70;99.90
23259;DHT22;11798;51.528;7.240;2023-06-10T08:09:49;22.90;99.90
23259;DHT22;11798;51.528;7.240;2023-06-10T08:12:14;22.90;99.90
23259;DHT22;11798;51.528;7.240;2023-06-10T08:14:40;23.00;99.90
23259;DHT22;11798;51.528;7.240;2023-06-10T08:17:06;23.10;99.90
23259;DHT22;11798;51.528;7.240;2023-06-10T08:19:32;23.20;99.90
23259;DHT22;11798;51.528;7.240;2023-06-10T08:21:57;23.30;99.90
23259;DHT22;11798;51.528;7.240;2023-06-10T08:24:23;23.40;99.90
23259;DHT22;11798;51.528;7.240;2023-06-10T08:26:48;23.60;99.90
23259;DHT22;11798;51.528;7.240;2023-06-10T08:29:14;23.40;99.90
23259;DHT22;11798;51.528;7.240;2023-06-10T08:31:43;23.40;99.90
23259;DHT22;11798;51.528;7.240;2023-06-10T08:34:09;23.50;99.90
23259;DHT22;11798;51.528;7.240;2023-06-10T08:36:35;23.60;99.90
23259;DHT22;11798;51.528;7.240;2023-06-10T08:39:01;23.60;99.90
23259;DHT22;11798;51.528;7.240;2023-06-10T08:41:28;23.70;99.90
23259;DHT22;11798;51.528;7.240;2023-06-10T08:44:16;23.70;99.90
23259;DHT22;11798;51.528;7.240;2023-06-10T08:46:47;23.70;99.90
23259;DHT22;11798;51.528;7.240;2023-06-10T08:49:18;23.80;99.90
23259;DHT22;11798;51.528;7.240;2023-06-10T08:51:49;23.90;99.90
23259;DHT22;11798;51.528;7.240;2023-06-10T08:54:18;24.00;99.90
23259;DHT22;11798;51.528;7.240;2023-06-10T08:56:49;24.10;99.90
23259;DHT22;11798;51.528;7.240;2023-06-10T08:59:16;24.10;99.90
23259;DHT22;11798;51.528;7.240;2023-06-10T09:01:43;24.20;99.90
23259;DHT22;11798;51.528;7.240;2023-06-10T09:04:09;24.40;99.90
23259;DHT22;11798;51.528;7.240;2023-06-10T09:06:35;24.40;99.90
23259;DHT22;11798;51.528;7.240;2023-06-10T09:09:02;24.50;99.90
23259;DHT22;11798;51.528;7.240;2023-06-10T09:11:28;24.50;99.90
23259;DHT22;11798;51.528;7.240;2023-06-10T09:13:53;24.70;99.90
23259;DHT22;11798;51.528;7.240;2023-06-10T09:16:19;24.70;99.90
23259;DHT22;11798;51.528;7.240;2023-06-10T09:18:45;24.80;99.90
23259;DHT22;11798;51.528;7.240;2023-06-10T09:21:11;24.90;99.90
23259;DHT22;11798;51.528;7.240;2023-06-10T09:23:37;25.00;99.90
23259;DHT22;11798;51.528;7.240;2023-06-10T09:26:08;24.90;99.90
23259;DHT22;11798;51.528;7.240;2023-06-10T09:28:34;25.00;99.90
23259;DHT22;11798;51.528;7.240;2023-06-10T09:31:04;25.10;99.90
23259;DHT22;11798;51.528;7.240;2023-06-10T09:33:30;25.00;99.90
23259;DHT22;11798;51.528;7.240;2023-06-10T09:35:56;25.00;99.90
23259;DHT22;11798;51.528;7.240;2023-06-10T09:38:29;25.20;99.90
23259;DHT22;11798;51.528;7.240;2023-06-10T09:40:56;25.30;99.90
23259;DHT22;11798;51.528;7.240;2023-06-10T09:43:22;25.40;99.90
23259;DHT22;11798;51.528;7.240;2023-06-10T09:45:48;25.30;99.90
23259;DHT22;11798;51.528;7.240;2023-06-10T09:48:14;25.50;99.90
23259;DHT22;11798;51.528;7.240;2023-06-10T09:50:44;25.50;99.90
23259;DHT22;11798;51.528;7.240;2023-06-10T09:53:11;25.50;99.90
23259;DHT22;11798;51.528;7.240;2023-06-10T09:55:41;25.60;99.90
23259;DHT22;11798;51.528;7.240;2023-06-10T09:58:07;25.70;99.90
23259;DHT22;11798;51.528;7.240;2023-06-10T10:00:33;25.80;99.90
23259;DHT22;11798;51.528;7.240;2023-06-10T10:02:59;25.80;99.90
23259;DHT22;11798;51.528;7.240;2023-06-10T10:05:25;25.90;99.90
23259;DHT22;11798;51.528;7.240;2023-06-10T10:07:51;25.90;99.90
23259;DHT22;11798;51.528;7.240;2023-06-10T10:10:19;26.00;99.90
23259;DHT22;11798;51.528;7.240;2023-06-10T10:12:50;26.10;99.90
23259;DHT22;11798;51.528;7.240;2023-06-10T10:15:17;26.10;99.90
23259;DHT22;11798;51.528;7.240;2023-06-10T10:20:20;26.20;99.90
23259;DHT22;11798;51.528;7.240;2023-06-10T10:22:49;26.30;99.90
23259;DHT22;11798;51.528;7.240;2023-06-10T10:25:28;26.30;99.90
23259;DHT22;11798;51.528;7.240;2023-06-10T10:28:12;26.40;99.90
23259;DHT22;11798;51.528;7.240;2023-06-10T10:30:41;26.40;99.90
23259;DHT22;11798;51.528;7.240;2023-06-10T10:33:16;26.50;99.90
23259;DHT22;11798;51.528;7.240;2023-06-10T10:35:43;26.60;99.90
23259;DHT22;11798;51.528;7.240;2023-06-10T10:38:11;26.60;99.90
23259;DHT22;11798;51.528;7.240;2023-06-10T10:40:36;26.80;99.90
23259;DHT22;11798;51.528;7.240;2023-06-10T10:43:02;26.80;99.90
23259;DHT22;11798;51.528;7.240;2023-06-10T10:45:31;26.90;99.90
23259;DHT22;11798;51.528;7.240;2023-06-10T10:47:58;27.00;99.90
23259;DHT22;11798;51.528;7.240;2023-06-10T10:50:30;26.90;99.90
23259;DHT22;11798;51.528;7.240;2023-06-10T10:53:00;27.00;99.90
23259;DHT22;11798;51.528;7.240;2023-06-10T10:55:27;27.20;99.90
23259;DHT22;11798;51.528;7.240;2023-06-10T10:57:56;27.20;99.90
23259;DHT22;11798;51.528;7.240;2023-06-10T11:00:27;27.10;99.90
23259;DHT22;11798;51.528;7.240;2023-06-10T11:02:52;27.20;99.90
23259;DHT22;11798;51.528;7.240;2023-06-10T11:05:20;27.30;99.90
23259;DHT22;11798;51.528;7.240;2023-06-10T11:07:56;27.40;99.90
23259;DHT22;11798;51.528;7.240;2023-06-10T11:10:31;27.50;99.90
23259;DHT22;11798;51.528;7.240;2023-06-10T11:12:57;27.70;99.90
23259;DHT22;11798;51.528;7.240;2023-06-10T11:15:24;27.80;99.90
23259;DHT22;11798;51.528;7.240;2023-06-10T11:20:44;27.50;99.90
23259;DHT22;11798;51.528;7.240;2023-06-10T11:23:10;27.60;99.90
23259;DHT22;11798;51.528;7.240;2023-06-10T11:25:39;27.50;99.90
23259;DHT22;11798;51.528;7.240;2023-06-10T11:28:17;27.60;99.90
23259;DHT22;11798;51.528;7.240;2023-06-10T11:30:42;27.80;99.90
23259;DHT22;11798;51.528;7.240;2023-06-10T11:33:08;27.80;99.90
23259;DHT22;11798;51.528;7.240;2023-06-10T11:35:33;27.70;99.90
23259;DHT22;11798;51.528;7.240;2023-06-10T11:37:59;27.70;99.90
23259;DHT22;11798;51.528;7.240;2023-06-10T11:40:24;27.90;99.90
23259;DHT22;11798;51.528;7.240;2023-06-10T11:42:51;27.80;99.90
23259;DHT22;11798;51.528;7.240;2023-06-10T11:45:16;27.90;99.90
23259;DHT22;11798;51.528;7.240;2023-06-10T11:47:54;27.90;99.90
23259;DHT22;11798;51.528;7.240;2023-06-10T11:50:32;28.10;99.90
23259;DHT22;11798;51.528;7.240;2023-06-10T11:52:58;28.10;99.90
23259;DHT22;11798;51.528;7.240;2023-06-10T11:55:25;27.90;99.90
23259;DHT22;11798;51.528;7.240;2023-06-10T11:57:51;28.00;99.90
23259;DHT22;11798;51.528;7.240;2023-06-10T12:00:23;28.00;99.90
23259;DHT22;11798;51.528;7.240;2023-06-10T12:02:55;28.00;99.90
23259;DHT22;11798;51.528;7.240;2023-06-10T12:05:22;28.00;99.90
23259;DHT22;11798;51.528;7.240;2023-06-10T12:07:48;28.00;99.90
23259;DHT22;11798;51.528;7.240;2023-06-10T12:10:13;28.00;99.90
23259;DHT22;11798;51.528;7.240;2023-06-10T12:12:39;28.10;99.90
23259;DHT22;11798;51.528;7.240;2023-06-10T12:15:06;28.20;99.90
23259;DHT22;11798;51.528;7.240;2023-06-10T12:19:58;28.10;99.90
23259;DHT22;11798;51.528;7.240;2023-06-10T12:22:24;28.30;99.90
23259;DHT22;11798;51.528;7.240;2023-06-10T12:24:57;28.30;99.90
23259;DHT22;11798;51.528;7.240;2023-06-10T12:27:26;28.40;99.90
23259;DHT22;11798;51.528;7.240;2023-06-10T12:29:55;28.40;99.90
23259;DHT22;11798;51.528;7.240;2023-06-10T12:32:20;28.60;99.90
23259;DHT22;11798;51.528;7.240;2023-06-10T12:35:01;28.80;99.90
23259;DHT22;11798;51.528;7.240;2023-06-10T12:37:28;28.60;99.90
23259;DHT22;11798;51.528;7.240;2023-06-10T12:39:54;28.50;99.90
23259;DHT22;11798;51.528;7.240;2023-06-10T12:42:21;28.60;99.90
23259;DHT22;11798;51.528;7.240;2023-06-10T12:44:47;28.60;99.90
23259;DHT22;11798;51.528;7.240;2023-06-10T12:47:18;28.60;99.90
23259;DHT22;11798;51.528;7.240;2023-06-10T12:49:43;28.60;99.90
23259;DHT22;11798;51.528;7.240;2023-06-10T12:52:09;28.50;99.90
23259;DHT22;11798;51.528;7.240;2023-06-10T12:54:34;28.50;99.90
23259;DHT22;11798;51.528;7.240;2023-06-10T12:57:00;28.70;99.90
23259;DHT22;11798;51.528;7.240;2023-06-10T12:59:26;28.80;99.90
23259;DHT22;11798;51.528;7.240;2023-06-10T13:01:52;28.80;99.90
23259;DHT22;11798;51.528;7.240;2023-06-10T13:04:18;28.90;99.90
23259;DHT22;11798;51.528;7.240;2023-06-10T13:06:45;28.80;99.90
23259;DHT22;11798;51.528;7.240;2023-06-10T13:09:13;28.70;99.90
23259;DHT22;11798;51.528;7.240;2023-06-10T13:11:38;28.60;99.90
23259;DHT22;11798;51.528;7.240;2023-06-10T13:14:04;28.70;99.90
23259;DHT22;11798;51.528;7.240;2023-06-10T13:16:33;28.70;99.90
23259;DHT22;11798;51.528;7.240;2023-06-10T13:18:58;28.70;99.90
23259;DHT22;11798;51.528;7.240;2023-06-10T13:21:24;28.80;99.90
23259;DHT22;11798;51.528;7.240;2023-06-10T13:23:50;28.90;99.90
23259;DHT22;11798;51.528;7.240;2023-06-10T13:26:16;28.90;99.90
23259;DHT22;11798;51.528;7.240;2023-06-10T13:28:45;29.10;99.90
23259;DHT22;11798;51.528;7.240;2023-06-10T13:31:11;29.20;99.90
23259;DHT22;11798;51.528;7.240;2023-06-10T13:33:36;29.10;99.90
23259;DHT22;11798;51.528;7.240;2023-06-10T13:36:02;29.20;99.90
23259;DHT22;11798;51.528;7.240;2023-06-10T13:38:27;29.30;99.90
23259;DHT22;11798;51.528;7.240;2023-06-10T13:40:53;29.30;99.90
23259;DHT22;11798;51.528;7.240;2023-06-10T13:43:18;29.20;99.90
23259;DHT22;11798;51.528;7.240;2023-06-10T13:45:44;29.10;99.90
23259;DHT22;11798;51.528;7.240;2023-06-10T13:48:10;29.30;99.90
23259;DHT22;11798;51.528;7.240;2023-06-10T13:50:36;29.40;99.90
23259;DHT22;11798;51.528;7.240;2023-06-10T13:53:02;29.50;99.90
23259;DHT22;11798;51.528;7.240;2023-06-10T13:55:27;29.80;99.90
23259;DHT22;11798;51.528;7.240;2023-06-10T13:57:53;30.10;99.90
23259;DHT22;11798;51.528;7.240;2023-06-10T14:00:18;29.70;99.90
23259;DHT22;11798;51.528;7.240;2023-06-10T14:02:44;29.70;99.90
23259;DHT22;11798;51.528;7.240;2023-06-10T14:05:10;29.90;99.90
23259;DHT22;11798;51.528;7.240;2023-06-10T14:07:35;29.90;99.90
23259;DHT22;11798;51.528;7.240;2023-06-10T14:10:02;30.00;99.90
23259;DHT22;11798;51.528;7.240;2023-06-10T14:12:28;30.10;99.90
23259;DHT22;11798;51.528;7.240;2023-06-10T14:14:53;29.90;99.90
23259;DHT22;11798;51.528;7.240;2023-06-10T14:17:19;30.10;99.90
23259;DHT22;11798;51.528;7.240;2023-06-10T14:19:45;30.20;99.90
23259;DHT22;11798;51.528;7.240;2023-06-10T14:22:10;30.20;99.90
23259;DHT22;11798;51.528;7.240;2023-06-10T14:24:36;30.20;99.90
23259;DHT22;11798;51.528;7.240;2023-06-10T14:27:01;30.40;99.90
23259;DHT22;11798;51.528;7.240;2023-06-10T14:29:27;30.30;99.90
23259;DHT22;11798;51.528;7.240;2023-06-10T14:31:54;30.60;99.90
23259;DHT22;11798;51.528;7.240;2023-06-10T14:34:20;30.40;99.90
23259;DHT22;11798;51.528;7.240;2023-06-10T14:36:45;30.70;99.90
23259;DHT22;11798;51.528;7.240;2023-06-10T14:39:11;30.60;99.90
23259;DHT22;11798;51.528;7.240;2023-06-10T14:41:36;30.60;99.90
23259;DHT22;11798;51.528;7.240;2023-06-10T14:44:02;30.90;99.90
23259;DHT22;11798;51.528;7.240;2023-06-10T14:46:28;30.70;99.90
23259;DHT22;11798;51.528;7.240;2023-06-10T14:48:53;30.80;99.90
23259;DHT22;11798;51.528;7.240;2023-06-10T14:51:18;31.10;99.90
23259;DHT22;11798;51.528;7.240;2023-06-10T14:53:46;31.10;99.90
23259;DHT22;11798;51.528;7.240;2023-06-10T14:56:12;31.00;99.90
23259;DHT22;11798;51.528;7.240;2023-06-10T14:58:37;30.80;99.90
23259;DHT22;11798;51.528;7.240;2023-06-10T15:01:03;30.70;99.90
23259;DHT22;11798;51.528;7.240;2023-06-10T15:03:29;30.90;99.90
23259;DHT22;11798;51.528;7.240;2023-06-10T15:05:54;31.10;99.90
23259;DHT22;11798;51.528;7.240;2023-06-10T15:08:20;31.20;99.90
23259;DHT22;11798;51.528;7.240;2023-06-10T15:10:45;31.40;99.90
23259;DHT22;11798;51.528;7.240;2023-06-10T15:13:13;31.80;99.90
23259;DHT22;11798;51.528;7.240;2023-06-10T15:15:38;32.10;99.90
23259;DHT22;11798;51.528;7.240;2023-06-10T15:18:04;32.20;99.90
23259;DHT22;11798;51.528;7.240;2023-06-10T15:20:30;32.10;99.90
23259;DHT22;11798;51.528;7.240;2023-06-10T15:22:55;31.90;99.90
23259;DHT22;11798;51.528;7.240;2023-06-10T15:25:21;31.80;99.90
23259;DHT22;11798;51.528;7.240;2023-06-10T15:27:46;31.80;99.90
23259;DHT22;11798;51.528;7.240;2023-06-10T15:30:12;31.80;99.90
23259;DHT22;11798;51.528;7.240;2023-06-10T15:32:37;31.90;99.90
23259;DHT22;11798;51.528;7.240;2023-06-10T15:35:03;32.10;99.90